Strona główna
METAR-TAF:

METAR-TAF

Lotnisko :

Lleida-Alguaire

Lleida, Hiszpania

Szerokość geograficzna: 41-43-40N, Długość geograficzna: 000-32-09E, wysokość: 350 m

Aktualna obserwacja pogody

Raport powstał 35 minut temu, godzina 15:00 UTC
Wiatr 5 kt od wschód, zmienny między wschodnio-północny wschód i południowy wschód
Temperatura 16°C
Wilgotność 72%
Ciśnienie 1019 hPa
Widzialność 10 km lub więcej
Brak chmur poniżej 1500 m i brak chmur cumulonimbus

METAR: LEDA 271500Z 10005KT 070V130 CAVOK 16/11 Q1019

czas: 16:35 (15:35 UTC)


TAF: brakujący

Obserwacja i prognoza pogody dla ponad 4000 lotnisk (raport METAR i TAF).

Dostępne stacje oznaczono żółtymi i czerwonymi punktami na mapie.

Najedź kursorem aby zobaczyć nazwę stacji.

Kliknij aby zobaczyć obserwacje i prognozy pogody.

Aby zmienić mapę: kliknij na zielony przycisk z czarnym krzyżykiem, aby powiększyć; na zielony przycisk z myślnikiem, aby pomniejszyć; na zielone strzałki, aby przejść do map sąsiednich.


METAR-TAF: